createdAt,value
2022-08-17T00:00:43.055Z,29.44
2022-08-17T00:03:19.496Z,29.45
2022-08-17T00:05:53.666Z,29.43
2022-08-17T00:08:26.209Z,29.42
2022-08-17T00:10:57.114Z,29.39
2022-08-17T00:13:34.892Z,29.37
2022-08-17T00:16:10.423Z,29.32
2022-08-17T00:19:05.718Z,29.31
2022-08-17T00:21:56.311Z,29.27
2022-08-17T00:24:18.762Z,29.22
2022-08-17T00:26:48.178Z,29.17
2022-08-17T00:29:20.073Z,29.10
2022-08-17T00:31:50.671Z,29.03
2022-08-17T00:34:19.344Z,28.99
2022-08-17T00:36:47.730Z,28.94
2022-08-17T00:39:16.164Z,28.90
2022-08-17T00:41:44.735Z,28.86
2022-08-17T00:44:13.206Z,28.82
2022-08-17T00:46:44.720Z,28.76
2022-08-17T00:49:16.412Z,28.73
2022-08-17T00:51:51.901Z,28.70
2022-08-17T00:54:25.186Z,28.65
2022-08-17T00:57:00.074Z,28.61
2022-08-17T00:59:32.968Z,28.58
2022-08-17T01:02:02.754Z,28.56
2022-08-17T01:04:34.015Z,28.52
2022-08-17T01:07:04.650Z,28.49
2022-08-17T01:09:34.051Z,28.47
2022-08-17T01:12:02.463Z,28.44
2022-08-17T01:14:30.841Z,28.37
2022-08-17T01:17:00.250Z,28.33
2022-08-17T01:19:35.842Z,28.27
2022-08-17T01:22:10.271Z,28.24
2022-08-17T01:24:43.463Z,28.19
2022-08-17T01:27:15.702Z,28.17
2022-08-17T01:29:53.134Z,28.13
2022-08-17T01:32:21.763Z,28.11
2022-08-17T01:34:50.936Z,28.09
2022-08-17T01:37:21.629Z,28.06
2022-08-17T01:39:58.785Z,28.01
2022-08-17T01:42:34.239Z,27.98
2022-08-17T01:45:10.113Z,27.95
2022-08-17T01:47:39.007Z,27.94
2022-08-17T01:50:13.256Z,27.91
2022-08-17T01:52:42.731Z,27.89
2022-08-17T01:55:14.636Z,27.86
2022-08-17T01:57:45.557Z,27.84
2022-08-17T02:00:15.839Z,27.81
2022-08-17T02:02:45.926Z,27.80
2022-08-17T02:05:15.323Z,27.76
2022-08-17T02:07:59.773Z,27.74
2022-08-17T02:10:33.853Z,27.70
2022-08-17T02:13:02.848Z,27.68
2022-08-17T02:15:32.056Z,27.66
2022-08-17T02:18:00.774Z,27.64
2022-08-17T02:20:41.333Z,27.61
2022-08-17T02:23:12.582Z,27.59
2022-08-17T02:25:45.296Z,27.55
2022-08-17T02:28:13.707Z,27.56
2022-08-17T02:30:59.349Z,27.54
2022-08-17T02:33:41.864Z,27.52
2022-08-17T02:36:13.522Z,27.50
2022-08-17T02:38:42.798Z,27.49
2022-08-17T02:41:13.092Z,27.48
2022-08-17T02:43:41.990Z,27.48
2022-08-17T02:46:12.776Z,27.48
2022-08-17T02:48:41.842Z,27.46
2022-08-17T02:51:10.618Z,27.44
2022-08-17T02:53:39.094Z,27.41
2022-08-17T02:56:08.066Z,27.39
2022-08-17T02:58:37.943Z,27.37
2022-08-17T03:01:09.707Z,27.35
2022-08-17T03:03:39.819Z,27.33
2022-08-17T03:06:09.564Z,27.33
2022-08-17T03:08:38.610Z,27.33
2022-08-17T03:11:07.272Z,27.31
2022-08-17T03:13:37.036Z,27.29
2022-08-17T03:16:06.237Z,27.27
2022-08-17T03:18:34.767Z,27.25
2022-08-17T03:21:04.676Z,27.20
2022-08-17T03:23:33.819Z,27.17
2022-08-17T03:26:02.510Z,27.13
2022-08-17T03:28:30.883Z,27.08
2022-08-17T03:31:00.761Z,27.04
2022-08-17T03:33:29.190Z,27.01
2022-08-17T03:35:58.089Z,26.99
2022-08-17T03:38:27.648Z,26.95
2022-08-17T03:40:59.690Z,26.93
2022-08-17T03:43:32.560Z,26.88
2022-08-17T03:46:28.582Z,26.86
2022-08-17T03:49:21.663Z,26.83
2022-08-17T03:52:07.330Z,26.79
2022-08-17T03:54:53.168Z,26.77
2022-08-17T03:57:21.640Z,26.75
2022-08-17T03:59:50.782Z,26.76
2022-08-17T04:02:25.256Z,26.76
2022-08-17T04:04:54.242Z,26.77
2022-08-17T04:07:27.585Z,26.77
2022-08-17T04:09:58.091Z,26.77
2022-08-17T04:12:31.006Z,26.76
2022-08-17T04:15:00.188Z,26.75
2022-08-17T04:17:30.948Z,26.77
2022-08-17T04:19:59.498Z,26.79
2022-08-17T04:22:31.159Z,26.82
2022-08-17T04:25:07.923Z,26.82
2022-08-17T04:27:36.350Z,26.85
2022-08-17T04:30:07.513Z,26.86
2022-08-17T04:33:10.825Z,26.86
2022-08-17T04:35:43.974Z,26.92
2022-08-17T04:38:16.615Z,26.96
2022-08-17T04:41:02.809Z,26.99
2022-08-17T04:43:33.656Z,27.02
2022-08-17T04:46:05.681Z,27.06
2022-08-17T04:48:39.747Z,27.11
2022-08-17T04:51:12.083Z,27.17
2022-08-17T04:53:42.677Z,27.23
2022-08-17T04:56:16.127Z,27.29
2022-08-17T04:58:49.819Z,27.34
2022-08-17T05:01:23.977Z,27.41
2022-08-17T05:03:56.237Z,27.46
2022-08-17T05:06:25.408Z,27.54
2022-08-17T05:08:54.259Z,27.61
2022-08-17T05:11:23.587Z,27.67
2022-08-17T05:13:52.125Z,27.74
2022-08-17T05:16:22.244Z,27.81
2022-08-17T05:18:50.846Z,27.90
2022-08-17T05:21:22.123Z,27.97
2022-08-17T05:23:54.883Z,28.06
2022-08-17T05:26:25.938Z,28.14
2022-08-17T05:28:59.592Z,28.22
2022-08-17T05:31:30.000Z,28.32
2022-08-17T05:33:59.031Z,28.40
2022-08-17T05:36:41.565Z,28.48
2022-08-17T05:39:16.479Z,28.56
2022-08-17T05:41:48.784Z,28.66
2022-08-17T05:44:18.228Z,28.74
2022-08-17T05:46:52.389Z,28.80
2022-08-17T05:49:27.560Z,28.93
2022-08-17T05:52:14.691Z,29.12
2022-08-17T05:55:04.177Z,29.30
2022-08-17T05:57:53.075Z,29.48
2022-08-17T06:00:30.708Z,29.59
2022-08-17T06:03:26.758Z,29.64
2022-08-17T06:06:31.889Z,29.70
2022-08-17T06:09:24.809Z,29.82
2022-08-17T06:12:01.617Z,29.96
2022-08-17T06:14:51.218Z,30.03
2022-08-17T06:17:23.814Z,30.18
2022-08-17T06:19:57.020Z,30.31
2022-08-17T06:22:30.792Z,30.44
2022-08-17T06:25:10.209Z,30.57
2022-08-17T06:27:42.623Z,30.72
2022-08-17T06:30:16.574Z,30.84
2022-08-17T06:32:48.976Z,30.95
2022-08-17T06:35:27.783Z,31.06
2022-08-17T06:38:33.962Z,31.17
2022-08-17T06:41:15.492Z,31.31
2022-08-17T06:44:10.952Z,31.44
2022-08-17T06:46:48.681Z,31.60
2022-08-17T06:49:28.587Z,31.73
2022-08-17T06:52:08.046Z,31.87
2022-08-17T06:54:47.308Z,31.98
2022-08-17T06:57:24.910Z,32.04
2022-08-17T06:59:58.450Z,32.14
2022-08-17T07:02:52.934Z,32.25
2022-08-17T07:05:26.649Z,32.41
2022-08-17T07:08:04.029Z,32.54
2022-08-17T07:10:44.297Z,32.71
2022-08-17T07:13:30.746Z,32.83
2022-08-17T07:16:15.535Z,32.97
2022-08-17T07:18:44.863Z,33.11
2022-08-17T07:21:27.589Z,33.19
2022-08-17T07:24:26.192Z,33.23
2022-08-17T07:27:13.501Z,33.30
2022-08-17T07:29:50.599Z,33.40
2022-08-17T07:32:25.068Z,33.44
2022-08-17T07:35:16.247Z,33.49
2022-08-17T07:37:50.987Z,33.58
2022-08-17T07:40:32.165Z,33.63
2022-08-17T07:43:22.255Z,33.73
2022-08-17T07:46:21.477Z,33.86
2022-08-17T07:48:52.909Z,34.00
2022-08-17T07:51:33.899Z,34.03
2022-08-17T07:54:22.408Z,34.13
2022-08-17T07:56:54.287Z,34.26
2022-08-17T07:59:33.588Z,34.36
2022-08-17T08:02:31.808Z,34.43
2022-08-17T08:05:10.132Z,34.57
2022-08-17T08:07:42.560Z,34.64
2022-08-17T08:10:15.276Z,34.70
2022-08-17T08:12:46.023Z,34.78
2022-08-17T08:15:19.494Z,34.87
2022-08-17T08:17:54.542Z,34.90
2022-08-17T08:20:53.055Z,34.87
2022-08-17T08:23:39.591Z,34.88
2022-08-17T08:26:27.645Z,34.97
2022-08-17T08:29:08.395Z,35.11
2022-08-17T08:31:57.303Z,35.20
2022-08-17T08:34:58.923Z,35.30
2022-08-17T08:37:49.562Z,35.36
2022-08-17T08:40:47.749Z,35.36
2022-08-17T08:43:30.420Z,35.42
2022-08-17T08:46:12.310Z,35.46
2022-08-17T08:49:12.258Z,35.48
2022-08-17T08:51:53.242Z,35.58
2022-08-17T08:54:36.984Z,35.66
2022-08-17T08:57:25.606Z,35.67
2022-08-17T09:00:15.267Z,35.71
2022-08-17T09:03:32.409Z,35.67
2022-08-17T09:06:40.088Z,35.63
2022-08-17T09:09:25.487Z,35.72
2022-08-17T09:12:06.528Z,35.80
2022-08-17T09:14:45.361Z,35.89
2022-08-17T09:17:20.347Z,35.95
2022-08-17T09:19:56.014Z,36.02
2022-08-17T09:22:37.119Z,36.03
2022-08-17T09:25:13.318Z,36.06
2022-08-17T09:27:54.877Z,36.10
2022-08-17T09:30:25.074Z,36.18
2022-08-17T09:32:59.881Z,36.19
2022-08-17T09:35:37.640Z,36.22
2022-08-17T09:38:22.145Z,36.22
2022-08-17T09:41:00.907Z,36.21
2022-08-17T09:43:43.828Z,36.23
2022-08-17T09:46:20.361Z,36.20
2022-08-17T09:48:58.353Z,36.16
2022-08-17T09:51:34.402Z,36.15
2022-08-17T09:54:21.342Z,36.19
2022-08-17T09:57:29.324Z,36.18
2022-08-17T10:00:16.603Z,36.18
2022-08-17T10:03:22.112Z,36.19
2022-08-17T10:05:57.212Z,36.23
2022-08-17T10:08:41.190Z,36.19
2022-08-17T10:11:33.523Z,36.17
2022-08-17T10:14:37.607Z,36.21
2022-08-17T10:17:11.889Z,36.22
2022-08-17T10:19:48.000Z,36.24
2022-08-17T10:22:42.596Z,36.24
2022-08-17T10:25:53.633Z,36.24
2022-08-17T10:28:28.943Z,36.25
2022-08-17T10:31:33.606Z,36.27
2022-08-17T10:34:18.819Z,36.28
2022-08-17T10:36:56.473Z,36.35
2022-08-17T10:39:35.380Z,36.41
2022-08-17T10:42:32.963Z,36.43
2022-08-17T10:45:08.262Z,36.50
2022-08-17T10:48:05.082Z,36.73
2022-08-17T10:51:00.779Z,37.16
2022-08-17T10:54:01.792Z,37.72
2022-08-17T10:56:51.113Z,38.29
2022-08-17T10:59:52.643Z,38.88
2022-08-17T11:02:33.502Z,39.48
2022-08-17T11:05:44.067Z,40.14
2022-08-17T11:08:43.338Z,40.81
2022-08-17T11:11:47.488Z,41.51
2022-08-17T11:14:33.480Z,42.15
2022-08-17T11:17:35.492Z,42.78
2022-08-17T11:21:01.608Z,43.46
2022-08-17T11:24:15.277Z,44.13
2022-08-17T11:26:48.957Z,44.61
2022-08-17T11:29:25.663Z,44.89
2022-08-17T11:32:07.939Z,45.28
2022-08-17T11:34:41.811Z,45.69
2022-08-17T11:37:44.145Z,46.08
2022-08-17T11:41:15.590Z,46.44
2022-08-17T11:44:23.428Z,46.79
2022-08-17T11:47:33.704Z,47.07
2022-08-17T11:50:56.614Z,47.38
2022-08-17T11:54:32.411Z,47.71
2022-08-17T11:57:22.857Z,48.15
2022-08-17T12:00:03.629Z,48.45
2022-08-17T12:02:48.148Z,48.72
2022-08-17T12:05:32.934Z,48.95
2022-08-17T12:08:19.747Z,49.20
2022-08-17T12:11:05.750Z,49.50
2022-08-17T12:13:46.389Z,49.77
2022-08-17T12:16:17.809Z,50.06
2022-08-17T12:18:53.695Z,50.26
2022-08-17T12:21:43.705Z,50.49
2022-08-17T12:24:31.426Z,50.89
2022-08-17T12:27:05.362Z,51.42
2022-08-17T12:29:38.819Z,51.95
2022-08-17T12:32:16.644Z,52.28
2022-08-17T12:34:47.719Z,52.42
2022-08-17T12:37:22.031Z,52.64
2022-08-17T12:39:55.947Z,52.79
2022-08-17T12:42:31.222Z,52.95
2022-08-17T12:45:00.221Z,53.05
2022-08-17T12:47:30.157Z,53.30
2022-08-17T12:50:28.667Z,53.65
2022-08-17T12:53:02.339Z,53.92
2022-08-17T12:55:36.966Z,54.04
2022-08-17T12:58:14.431Z,54.17
2022-08-17T13:00:51.829Z,54.40
2022-08-17T13:03:23.732Z,54.68
2022-08-17T13:06:01.754Z,54.95
2022-08-17T13:08:36.154Z,55.17
2022-08-17T13:11:09.399Z,55.30
2022-08-17T13:13:42.958Z,55.55
2022-08-17T13:16:20.243Z,55.86
2022-08-17T13:18:53.756Z,56.11
2022-08-17T13:21:30.444Z,56.02
2022-08-17T13:24:02.784Z,55.75
2022-08-17T13:26:35.401Z,55.76
2022-08-17T13:29:09.493Z,55.90
2022-08-17T13:31:51.821Z,56.06
2022-08-17T13:35:12.090Z,56.18
2022-08-17T13:37:33.767Z,56.47
2022-08-17T13:40:31.134Z,56.39
2022-08-17T13:43:00.147Z,56.32
2022-08-17T13:45:51.124Z,56.22
2022-08-17T13:48:32.073Z,56.08
2022-08-17T13:51:27.983Z,55.88
2022-08-17T13:54:21.161Z,56.03
2022-08-17T13:57:05.345Z,56.39
2022-08-17T13:59:55.030Z,56.63
2022-08-17T14:02:28.536Z,56.60
2022-08-17T14:05:00.567Z,56.59
2022-08-17T14:07:35.650Z,56.53
2022-08-17T14:10:10.922Z,56.70
2022-08-17T14:12:41.921Z,56.74
2022-08-17T14:15:12.660Z,56.79
2022-08-17T14:17:42.574Z,57.08
2022-08-17T14:20:14.404Z,57.32
2022-08-17T14:22:46.633Z,57.22
2022-08-17T14:25:18.768Z,57.31
2022-08-17T14:27:53.185Z,57.52
2022-08-17T14:30:25.098Z,57.55
2022-08-17T14:32:56.697Z,57.55
2022-08-17T14:35:27.880Z,57.53
2022-08-17T14:37:56.834Z,57.64
2022-08-17T14:40:26.400Z,57.83
2022-08-17T14:42:56.795Z,58.06
2022-08-17T14:45:31.511Z,58.30
2022-08-17T14:48:05.856Z,58.48
2022-08-17T14:50:35.954Z,58.60
2022-08-17T14:53:05.959Z,58.72
2022-08-17T14:55:35.081Z,58.67
2022-08-17T14:58:04.360Z,58.28
2022-08-17T15:00:33.273Z,57.33
2022-08-17T15:03:04.341Z,56.11
2022-08-17T15:05:36.713Z,54.79
2022-08-17T15:08:07.132Z,53.40
2022-08-17T15:10:36.401Z,52.17
2022-08-17T15:13:05.020Z,51.09
2022-08-17T15:15:33.496Z,50.12
2022-08-17T15:18:03.798Z,49.24
2022-08-17T15:20:32.485Z,48.46
2022-08-17T15:23:01.020Z,47.72
2022-08-17T15:25:32.797Z,47.08
2022-08-17T15:28:02.748Z,46.52
2022-08-17T15:30:32.654Z,45.98
2022-08-17T15:33:03.441Z,45.44
2022-08-17T15:35:34.251Z,44.96
2022-08-17T15:38:12.173Z,44.50
2022-08-17T15:40:45.591Z,44.10
2022-08-17T15:43:20.113Z,43.76
2022-08-17T15:46:00.802Z,43.42
2022-08-17T15:48:42.170Z,43.17
2022-08-17T15:51:14.487Z,42.90
2022-08-17T15:53:45.147Z,42.67
2022-08-17T15:56:15.200Z,42.45
2022-08-17T15:58:46.719Z,42.23
2022-08-17T16:01:35.183Z,42.05
2022-08-17T16:04:26.690Z,41.91
2022-08-17T16:06:55.837Z,41.78
2022-08-17T16:09:24.254Z,41.69
2022-08-17T16:11:55.436Z,41.63
2022-08-17T16:14:24.413Z,41.59
2022-08-17T16:16:59.412Z,41.55
2022-08-17T16:19:29.189Z,41.48
2022-08-17T16:21:57.799Z,41.39
2022-08-17T16:24:26.438Z,41.25
2022-08-17T16:26:55.457Z,41.11
2022-08-17T16:29:24.701Z,40.93
2022-08-17T16:31:53.465Z,40.76
2022-08-17T16:34:22.058Z,40.57
2022-08-17T16:36:55.905Z,40.37
2022-08-17T16:39:29.844Z,40.18
2022-08-17T16:41:58.888Z,40.03
2022-08-17T16:44:31.889Z,39.85
2022-08-17T16:47:01.188Z,39.69
2022-08-17T16:49:37.234Z,39.53
2022-08-17T16:52:11.316Z,39.35
2022-08-17T16:54:43.959Z,39.22
2022-08-17T16:57:13.755Z,39.06
2022-08-17T16:59:47.498Z,38.92
2022-08-17T17:02:24.753Z,38.78
2022-08-17T17:05:02.770Z,38.60
2022-08-17T17:08:00.840Z,38.41
2022-08-17T17:10:38.795Z,38.28
2022-08-17T17:13:13.979Z,38.16
2022-08-17T17:15:57.510Z,37.99
2022-08-17T17:18:38.516Z,37.87
2022-08-17T17:21:11.037Z,37.78
2022-08-17T17:23:52.025Z,37.62
2022-08-17T17:26:45.016Z,37.50
2022-08-17T17:29:29.666Z,37.38
2022-08-17T17:32:26.365Z,37.27
2022-08-17T17:35:02.826Z,37.17
2022-08-17T17:37:36.410Z,37.08
2022-08-17T17:40:15.655Z,36.98
2022-08-17T17:42:45.651Z,36.91
2022-08-17T17:45:22.408Z,36.78
2022-08-17T17:47:51.469Z,36.72
2022-08-17T17:50:27.698Z,36.62
2022-08-17T17:53:02.582Z,36.50
2022-08-17T17:55:48.252Z,36.39
2022-08-17T17:58:33.798Z,36.28
2022-08-17T18:01:20.609Z,36.17
2022-08-17T18:04:17.037Z,36.05
2022-08-17T18:07:12.332Z,35.93
2022-08-17T18:10:03.445Z,35.81
2022-08-17T18:12:44.643Z,35.74
2022-08-17T18:15:31.489Z,35.63
2022-08-17T18:18:31.282Z,35.54
2022-08-17T18:21:06.614Z,35.48
2022-08-17T18:23:35.617Z,35.43
2022-08-17T18:26:04.118Z,35.35
2022-08-17T18:28:36.700Z,35.24
2022-08-17T18:31:17.747Z,35.14
2022-08-17T18:33:49.122Z,35.08
2022-08-17T18:36:31.077Z,34.98
2022-08-17T18:39:12.706Z,34.91
2022-08-17T18:41:44.133Z,34.85
2022-08-17T18:44:29.012Z,34.73
2022-08-17T18:47:13.582Z,34.63
2022-08-17T18:49:43.760Z,34.58
2022-08-17T18:52:22.867Z,34.48
2022-08-17T18:55:09.899Z,34.37
2022-08-17T18:57:41.733Z,34.31
2022-08-17T19:00:20.839Z,34.18
2022-08-17T19:02:55.791Z,34.11
2022-08-17T19:05:35.602Z,34.04
2022-08-17T19:08:25.562Z,33.91
2022-08-17T19:10:59.570Z,33.85
2022-08-17T19:13:35.180Z,33.76
2022-08-17T19:16:16.021Z,33.66
2022-08-17T19:18:53.332Z,33.61
2022-08-17T19:21:27.636Z,33.53
2022-08-17T19:24:06.152Z,33.44
2022-08-17T19:26:53.609Z,33.38
2022-08-17T19:29:34.394Z,33.29
2022-08-17T19:32:05.442Z,33.23
2022-08-17T19:34:37.875Z,33.15
2022-08-17T19:37:15.421Z,33.10
2022-08-17T19:39:56.504Z,33.02
2022-08-17T19:42:42.761Z,32.96
2022-08-17T19:45:26.672Z,32.91
2022-08-17T19:48:07.646Z,32.84
2022-08-17T19:50:45.125Z,32.80
2022-08-17T19:53:54.106Z,32.73
2022-08-17T19:56:31.831Z,32.67
2022-08-17T19:59:11.405Z,32.61
2022-08-17T20:01:46.451Z,32.58
2022-08-17T20:04:32.235Z,32.53
2022-08-17T20:07:07.758Z,32.51
2022-08-17T20:09:40.886Z,32.46
2022-08-17T20:12:15.267Z,32.43
2022-08-17T20:14:53.680Z,32.38
2022-08-17T20:17:28.345Z,32.33
2022-08-17T20:20:07.622Z,32.25
2022-08-17T20:22:56.007Z,32.21
2022-08-17T20:25:42.126Z,32.13
2022-08-17T20:28:24.430Z,32.10
2022-08-17T20:30:53.690Z,32.09
2022-08-17T20:33:29.731Z,32.04
2022-08-17T20:36:19.414Z,31.97
2022-08-17T20:38:50.897Z,31.96
2022-08-17T20:41:22.300Z,31.93
2022-08-17T20:44:04.197Z,31.86
2022-08-17T20:47:06.411Z,31.79
2022-08-17T20:49:52.225Z,31.76
2022-08-17T20:52:52.706Z,31.69
2022-08-17T20:55:55.757Z,31.63
2022-08-17T20:58:49.693Z,31.60
2022-08-17T21:01:35.068Z,31.61
2022-08-17T21:04:09.478Z,31.57
2022-08-17T21:07:43.372Z,31.49
2022-08-17T21:10:18.152Z,31.49
2022-08-17T21:12:51.501Z,31.46
2022-08-17T21:15:35.352Z,31.39
2022-08-17T21:18:13.913Z,31.38
2022-08-17T21:21:04.073Z,31.33
2022-08-17T21:23:54.742Z,31.28
2022-08-17T21:26:33.516Z,31.26
2022-08-17T21:29:31.397Z,31.21
2022-08-17T21:32:24.523Z,31.17
2022-08-17T21:35:30.440Z,31.11
2022-08-17T21:38:05.164Z,31.11
2022-08-17T21:40:35.324Z,31.10
2022-08-17T21:43:23.672Z,31.04
2022-08-17T21:46:06.638Z,31.00
2022-08-17T21:48:45.227Z,31.00
2022-08-17T21:51:23.539Z,30.96
2022-08-17T21:53:56.750Z,30.94
2022-08-17T21:56:29.240Z,30.93
2022-08-17T21:59:02.783Z,30.90
2022-08-17T22:01:36.594Z,30.87
2022-08-17T22:04:19.612Z,30.84
2022-08-17T22:06:56.626Z,30.81
2022-08-17T22:09:28.701Z,30.78
2022-08-17T22:12:06.826Z,30.72
2022-08-17T22:14:52.246Z,30.68
2022-08-17T22:17:25.989Z,30.66
2022-08-17T22:19:58.896Z,30.63
2022-08-17T22:22:56.827Z,30.57
2022-08-17T22:25:26.611Z,30.55
2022-08-17T22:27:58.263Z,30.51
2022-08-17T22:30:37.061Z,30.45
2022-08-17T22:33:32.450Z,30.39
2022-08-17T22:36:14.362Z,30.37
2022-08-17T22:38:43.853Z,30.37
2022-08-17T22:41:51.595Z,30.26
2022-08-17T22:44:27.251Z,30.26
2022-08-17T22:47:11.330Z,30.23
2022-08-17T22:49:53.025Z,30.20
2022-08-17T22:52:35.598Z,30.16
2022-08-17T22:55:33.001Z,30.15
2022-08-17T22:58:20.809Z,30.12
2022-08-17T23:00:51.152Z,30.08
2022-08-17T23:03:24.164Z,30.06
2022-08-17T23:06:06.188Z,30.02
2022-08-17T23:08:37.135Z,30.04
2022-08-17T23:11:07.788Z,30.02
2022-08-17T23:13:37.863Z,30.00
2022-08-17T23:16:06.562Z,29.99
2022-08-17T23:18:37.466Z,29.96
2022-08-17T23:21:07.760Z,29.95
2022-08-17T23:23:37.152Z,29.93
2022-08-17T23:26:10.455Z,29.92
2022-08-17T23:28:41.103Z,29.90
2022-08-17T23:31:09.864Z,29.88
2022-08-17T23:33:40.882Z,29.86
2022-08-17T23:36:15.436Z,29.84
2022-08-17T23:38:44.705Z,29.82
2022-08-17T23:41:17.035Z,29.78
2022-08-17T23:43:58.207Z,29.75
2022-08-17T23:46:26.650Z,29.74
2022-08-17T23:48:56.442Z,29.73
2022-08-17T23:51:28.838Z,29.71
2022-08-17T23:54:07.959Z,29.69
2022-08-17T23:56:42.100Z,29.66
2022-08-17T23:59:11.722Z,29.64
